Latest Weather Observations for Leonora Airport

IDW60801

Issued at 6:23 pm WST Monday 17 December 2018 (issued every 10 minutes, with the page automatically refreshed every 10 minutes)

About weather observations | Map of weather stations | Latest weather observations for WA | Other Formats
Station Details ID: 012241 Name: LEONORA AERO Lat: -28.88 Lon: 121.32 Height: 370.0 m
Data from the previous 72 hours. | See also: Recent months at Leonora Airport
Date/Time
WST
Temp
°C
App
Temp
°C
Dew
Point
°C
Rel
Hum
%
Delta-T
°C
Wind Press
QNH
hPa
Press
MSL
hPa
Rain since
9am
mm
Dir  Spd
km/h
Gust
km/h
Spd
kts
Gust
kts
17/06:00pm 24.5 22.2 14.0 52 6.3 SSW 19 39 10 21 1008.0 1005.5 3.6
17/05:30pm 23.9 24.2 15.9 61 4.9 SW 9 15 5 8 1007.5 1005.0 3.6
17/05:00pm 22.2 22.3 15.5 66 4.1 SSW 9 15 5 8 1007.0 1004.5 3.6
17/04:30pm 21.5 20.9 17.5 78 2.5 SSW 17 26 9 14 1006.9 1004.4 3.6
17/04:00pm 19.0 17.8 16.0 83 1.8 SSW 17 24 9 13 1006.9 1004.4 3.4
17/03:52pm 18.9 16.6 15.6 81 2.0 SW 22 33 12 18 1006.7 1004.3 3.4
17/03:30pm 18.8 12.7 14.1 74 2.7 WSW 39 61 21 33 1006.4 1004.0 1.8
17/03:28pm 19.4 13.3 14.0 71 3.2 WSW 39 61 21 33 1006.1 1003.6 0.8
17/03:17pm 25.2 20.8 9.1 36 8.9 SSW 22 59 12 32 1005.7 1003.2 0.0
17/03:00pm 27.1 23.1 9.0 32 10.1 SSW 20 32 11 17 1005.5 1003.0 0.0
17/02:30pm 27.7 24.1 10.0 33 10.1 SSW 19 30 10 16 1005.6 1003.1 0.0
17/02:00pm 26.2 22.6 10.4 37 9.0 SW 20 33 11 18 1005.6 1003.1 0.0
17/01:30pm 26.6 24.1 11.1 38 8.9 SW 15 28 8 15 1005.8 1003.3 0.0
17/01:00pm 25.5 22.5 10.5 39 8.5 SW 17 24 9 13 1005.9 1003.4 0.0
17/12:30pm 26.7 24.7 11.6 39 8.8 SSW 13 24 7 13 1005.8 1003.3 0.0
17/12:00pm 24.7 21.5 11.3 43 7.7 SSW 19 28 10 15 1006.1 1003.6 0.0
17/11:30am 23.9 20.6 11.6 46 7.1 S 20 33 11 18 1006.0 1003.5 0.0
17/11:00am 24.4 21.4 12.4 47 7.0 SSW 20 32 11 17 1006.2 1003.7 0.0
17/10:30am 23.3 20.1 12.0 49 6.5 SSW 20 28 11 15 1006.5 1004.1 0.0
17/10:00am 23.3 20.2 12.3 50 6.4 SSW 20 30 11 16 1006.6 1004.2 0.0
17/09:30am 23.0 19.9 12.3 51 6.2 S 20 30 11 16 1006.5 1004.1 0.0
17/09:00am 22.3 20.2 12.5 53 5.7 S 15 24 8 13 1006.3 1003.9 0.0
17/08:30am 21.9 19.1 12.5 55 5.4 S 19 28 10 15 1006.0 1003.5 0.0
17/08:00am 22.2 19.2 12.7 55 5.5 SSE 20 28 11 15 1005.7 1003.2 0.0
17/07:30am 22.4 19.7 12.9 55 5.5 S 19 28 10 15 1005.3 1002.8 0.0
17/07:00am 22.5 19.8 13.0 55 5.6 SSW 19 26 10 14 1005.1 1002.6 0.0
17/06:30am 22.3 18.4 9.5 44 7.0 WSW 20 30 11 16 1004.4 1001.9 0.0
17/06:00am 21.9 18.5 9.1 44 7.0 W 17 28 9 15 1004.1 1001.6 0.0
17/05:30am 21.5 17.7 9.1 45 6.7 W 19 28 10 15 1003.7 1001.2 0.0
17/05:00am 21.5 16.8 9.1 45 6.7 W 24 35 13 19 1003.4 1000.9 0.0
17/04:30am 21.8 17.0 9.0 44 6.9 W 24 35 13 19 1002.7 1000.2 0.0
17/04:00am 22.2 18.1 8.0 40 7.6 W 19 26 10 14 1002.6 1000.1 0.0
17/03:30am 22.8 18.3 7.0 36 8.3 WNW 20 30 11 16 1002.3 999.8 0.0
17/03:00am 23.4 18.6 7.5 36 8.5 WNW 22 32 12 17 1002.4 999.9 0.0
17/02:30am 23.6 20.6 7.7 36 8.5 WNW 13 15 7 8 1001.7 999.2 0.0
17/02:00am 23.8 20.8 7.8 36 8.6 WNW 13 17 7 9 1001.4 998.8 0.0
17/01:30am 24.1 20.7 7.7 35 8.8 WNW 15 19 8 10 1001.0 998.5 0.0
17/01:00am 24.2 21.1 7.4 34 9.0 WNW 13 19 7 10 1001.0 998.5 0.0
17/12:30am 24.8 22.0 7.0 32 9.5 WNW 11 15 6 8 1001.0 998.5 0.0
17/12:00am 25.3 22.6 7.4 32 9.7 W 11 15 6 8 1000.9 998.4 0.0
 
Date/Time
WST
Temp
°C
App
Temp
°C
Dew
Point
°C
Rel
Hum
%
Delta-T
°C
Wind Press
QNH
hPa
Press
MSL
hPa
Rain since
9am
mm
Dir  Spd
km/h
Gust
km/h
Spd
kts
Gust
kts
16/11:30pm 25.5 22.3 6.7 30 10.0 WSW 13 19 7 10 1000.7 998.2 0.0
16/11:00pm 26.0 22.7 6.6 29 10.4 WSW 13 20 7 11 1001.0 998.5 0.0
16/10:30pm 26.6 22.6 6.6 28 10.7 WSW 17 24 9 13 1001.3 998.7 0.0
16/10:00pm 27.1 23.2 7.0 28 10.9 WSW 17 24 9 13 1001.7 999.2 0.0
16/09:30pm 27.7 23.4 7.0 27 11.2 WSW 19 26 10 14 1001.7 999.2 0.0
16/09:00pm 28.2 24.3 6.9 26 11.6 WSW 17 22 9 12 1001.7 999.2 0.0
16/08:30pm 28.9 23.9 4.4 21 12.7 W 20 28 11 15 1001.6 999.1 0.0
16/08:00pm 28.8 25.2 2.9 19 13.2 WNW 11 13 6 7 1001.4 998.8 0.0
16/07:30pm 30.0 26.0 0.6 15 14.4 W 11 15 6 8 1001.2 998.6 0.0
16/07:00pm 31.0 26.5 -0.6 13 15.4 WNW 13 17 7 9 1000.9 998.4 0.0
16/06:30pm 32.2 26.5 -0.8 12 16.1 WNW 19 26 10 14 1000.5 998.0 0.0
16/06:00pm 33.1 27.3 -0.1 12 16.5 W 20 28 11 15 1000.3 997.8 0.0
16/05:30pm 33.4 27.1 1.3 13 16.3 WNW 24 33 13 18 1000.0 997.5 0.0
16/05:00pm 34.1 29.2 1.8 13 16.7 WNW 17 32 9 17 999.7 997.2 0.0
16/04:30pm 33.9 28.4 1.6 13 16.5 WNW 20 32 11 17 999.6 997.1 0.0
16/04:00pm 33.9 27.8 2.7 14 16.3 WNW 24 35 13 19 999.6 997.1 0.0
16/03:42pm 34.3 28.8 4.0 15 16.2 W 22 41 12 22 999.6 997.1 0.0
16/03:30pm 33.9 28.7 2.7 14 16.3 WNW 19 30 10 16 999.6 997.1 0.0
16/03:00pm 34.0 30.1 5.5 17 15.6 WNW 15 28 8 15 999.8 997.3 0.0
16/02:30pm 33.7 28.1 5.3 17 15.4 WNW 24 39 13 21 1000.2 997.7 0.0
16/02:00pm 33.3 28.9 7.3 20 14.6 WNW 20 32 11 17 1000.4 997.9 0.0
16/01:30pm 32.4 27.9 8.6 23 13.5 W 22 35 12 19 1000.7 998.2 0.0
16/01:00pm 31.9 28.0 9.4 25 13.0 W 20 28 11 15 1001.2 998.6 0.0
16/12:30pm 31.9 27.6 9.4 25 12.9 WNW 22 35 12 19 1001.4 998.8 0.0
16/12:00pm 31.2 28.0 11.1 29 11.9 WNW 19 30 10 16 1001.7 999.2 0.0
16/11:30am 30.2 27.1 12.1 32 10.8 W 20 35 11 19 1002.0 999.5 0.0
16/11:00am 30.0 26.8 12.0 33 10.7 NW 20 43 11 23 1002.2 999.7 0.0
16/10:30am 29.3 26.7 13.1 37 9.7 WNW 19 30 10 16 1002.5 1000.0 0.0
16/10:00am 28.8 26.7 13.5 39 9.3 W 17 26 9 14 1002.7 1000.2 0.0
16/09:30am 28.1 25.5 13.2 39 8.9 WSW 19 30 10 16 1002.9 1000.4 0.0
16/09:00am 26.8 24.6 13.2 43 8.1 W 17 24 9 13 1003.1 1000.6 0.0
16/08:30am 25.9 22.7 13.1 45 7.6 W 22 30 12 16 1003.2 1000.7 0.0
16/08:00am 25.9 23.4 13.4 46 7.5 WSW 19 32 10 17 1003.3 1000.8 0.0
16/07:30am 25.3 22.5 13.2 47 7.2 W 20 30 11 16 1003.2 1000.7 0.0
16/07:00am 24.8 21.6 13.0 47 7.0 W 22 30 12 16 1003.0 1000.5 0.0
16/06:30am 24.3 20.2 12.6 48 6.8 W 26 33 14 18 1002.9 1000.4 0.0
16/06:00am 24.0 21.1 12.3 48 6.8 W 19 26 10 14 1002.6 1000.1 0.0
16/05:30am 23.7 22.4 12.4 49 6.6 W 11 15 6 8 1002.2 999.7 0.0
16/05:00am 24.1 21.9 12.1 47 7.0 W 15 20 8 11 1002.0 999.5 0.0
16/04:30am 24.5 22.6 11.8 45 7.3 WNW 13 15 7 8 1001.4 998.8 0.0
16/04:00am 24.5 23.4 11.8 45 7.4 NNW 9 11 5 6 1001.4 998.8 0.0
16/03:30am 25.2 23.6 10.3 39 8.4 NW 9 11 5 6 1001.0 998.5 0.0
16/03:00am 26.2 24.0 9.5 35 9.4 NW 11 15 6 8 1000.9 998.4 0.0
16/02:30am 27.3 24.5 8.7 31 10.3 NNW 13 17 7 9 1000.8 998.3 0.0
16/02:00am 28.5 24.2 7.1 26 11.7 N 19 24 10 13 1000.6 998.1 0.0
16/01:30am 28.5 23.5 3.4 20 12.8 N 19 22 10 12 1000.5 998.0 0.0
16/01:00am 29.2 23.0 -0.1 15 14.2 N 22 28 12 15 1000.6 998.1 0.0
16/12:30am 29.3 23.1 0.0 15 14.2 NNE 22 28 12 15 1000.6 998.1 0.0
16/12:00am 29.1 23.6 0.7 16 14.0 NE 19 28 10 15 1000.8 998.3 0.0
 
Date/Time
WST
Temp
°C
App
Temp
°C
Dew
Point
°C
Rel
Hum
%
Delta-T
°C
Wind Press
QNH
hPa
Press
MSL
hPa
Rain since
9am
mm
Dir  Spd
km/h
Gust
km/h
Spd
kts
Gust
kts
15/11:30pm 29.1 23.4 0.7 16 13.9 NE 20 28 11 15 1001.0 998.5 0.0
15/11:00pm 29.0 24.5 2.3 18 13.5 ENE 15 22 8 12 1001.3 998.7 0.0
15/10:30pm 27.8 25.1 2.8 20 12.6 ENE 6 9 3 5 1001.8 999.3 0.0
15/10:00pm 29.6 25.8 2.0 17 13.9 NE 11 19 6 10 1001.9 999.4 0.0
15/09:30pm 30.4 25.5 1.8 16 14.4 ENE 17 24 9 13 1001.7 999.2 0.0
15/09:00pm 30.8 25.9 2.1 16 14.6 ENE 17 24 9 13 1001.6 999.1 0.0
15/08:30pm 31.3 25.8 1.6 15 15.0 E 20 28 11 15 1001.0 998.5 0.0
15/08:00pm 32.2 26.5 0.3 13 15.9 E 20 26 11 14 1000.6 998.1 0.0
15/07:30pm 32.2 27.2 1.3 14 15.6 ESE 17 20 9 11 1000.5 998.0 0.0
15/07:00pm 33.7 27.4 -0.8 11 17.0 E 22 30 12 16 1000.3 997.8 0.0
15/06:30pm 34.9 28.0 -2.6 9 18.0 E 24 35 13 19 1000.1 997.6 0.0
15/06:00pm 35.3 27.9 -0.9 10 18.0 E 28 39 15 21 1000.2 997.7 0.0
15/05:30pm 36.2 28.7 -1.7 9 18.7 E 28 35 15 19 1000.4 997.9 0.0
15/05:00pm 36.7 30.9 -1.3 9 19.0 ENE 19 26 10 14 1000.6 998.1 0.0
15/04:30pm 36.6 30.6 -1.4 9 18.8 ENE 20 30 11 16 1000.8 998.3 0.0
15/04:00pm 36.1 30.1 -1.7 9 18.7 NE 20 28 11 15 1001.4 998.8 0.0
15/03:30pm 36.1 30.7 -1.7 9 18.6 NNE 17 26 9 14 1001.9 999.4 0.0
15/03:00pm 35.8 29.7 -2.0 9 18.6 NE 20 32 11 17 1002.2 999.7 0.0
15/02:30pm 35.4 28.5 -2.3 9 18.3 ENE 24 35 13 19 1002.2 999.7 0.0
15/02:00pm 34.9 27.6 -2.6 9 18.1 ENE 26 39 14 21 1002.8 1000.3 0.0
15/01:30pm 34.5 29.3 -0.2 11 17.3 ENE 17 32 9 17 1003.4 1000.9 0.0
15/01:00pm 34.0 28.3 -0.6 11 17.2 ENE 19 33 10 18 1004.2 1001.7 0.0
15/12:30pm 33.2 27.2 -1.2 11 16.7 ENE 20 33 11 18 1004.9 1002.4 0.0
15/12:00pm 32.6 27.5 0.6 13 16.0 ENE 17 26 9 14 1005.6 1003.1 0.0
15/11:30am 31.6 26.1 0.9 14 15.3 ENE 19 33 10 18 1006.1 1003.6 0.0
15/11:00am 31.8 26.5 2.0 15 15.2 ENE 19 26 10 14 1006.9 1004.4 0.0
15/10:30am 30.2 24.9 1.6 16 14.3 ENE 19 26 10 14 1007.5 1005.0 0.0
15/10:00am 28.8 24.2 3.6 20 13.0 ENE 17 24 9 13 1007.9 1005.4 0.0
15/09:30am 28.5 23.8 3.4 20 12.8 E 17 22 9 12 1008.3 1005.8 0.0
15/09:00am 27.1 23.4 4.2 23 11.8 E 13 17 7 9 1008.9 1006.5 0.0
15/08:30am 26.2 21.6 3.5 23 11.4 ENE 17 22 9 12 1008.8 1006.4 0.0
15/08:00am 26.0 20.8 3.3 23 11.4 NE 20 26 11 14 1009.0 1006.6 0.0
15/07:30am 25.7 20.1 3.6 24 11.1 ENE 22 32 12 17 1008.9 1006.5 0.0
15/07:00am 24.2 18.3 4.0 27 10.2 NE 24 35 13 19 1008.9 1006.5 0.0
15/06:30am 23.0 18.0 4.5 30 9.3 NE 20 30 11 16 1008.7 1006.3 0.0
15/06:00am 21.9 16.9 4.5 32 8.7 ENE 20 28 11 15 1008.5 1006.0 0.0
15/05:30am 21.0 16.9 4.1 33 8.3 E 15 20 8 11 1008.8 1006.4 0.0
15/05:00am 20.6 16.4 3.8 33 8.2 E 15 19 8 10 1008.8 1006.4 0.0
15/04:30am 20.7 16.8 3.4 32 8.4 E 13 17 7 9 1008.4 1005.9 0.0
15/04:00am 21.2 16.9 3.4 31 8.7 ENE 15 20 8 11 1008.2 1005.7 0.0
15/03:30am 21.9 17.6 3.1 29 9.1 ENE 15 22 8 12 1008.1 1005.6 0.0
15/03:00am 22.2 17.3 2.3 27 9.6 ENE 17 24 9 13 1007.7 1005.2 0.0
15/02:30am 22.3 17.8 2.4 27 9.6 ENE 15 24 8 13 1007.7 1005.2 0.0
15/02:00am 22.9 17.4 1.9 25 10.1 E 20 30 11 16 1007.4 1004.9 0.0
15/01:30am 23.3 17.7 1.0 23 10.5 E 20 28 11 15 1007.8 1005.3 0.0
15/01:00am 23.9 18.3 0.9 22 10.9 E 20 28 11 15 1008.2 1005.7 0.0
15/12:30am 23.8 18.5 2.0 24 10.5 E 19 24 10 13 1008.7 1006.3 0.0
15/12:00am 24.2 20.1 2.4 24 10.6 E 13 15 7 8 1009.2 1006.8 0.0
 
Date/Time
WST
Temp
°C
App
Temp
°C
Dew
Point
°C
Rel
Hum
%
Delta-T
°C
Wind Press
QNH
hPa
Press
MSL
hPa
Rain since
9am
mm
Dir  Spd
km/h
Gust
km/h
Spd
kts
Gust
kts
14/11:30pm 25.0 20.1 1.8 22 11.2 ENE 17 20 9 11 1009.3 1006.9 0.0
14/11:00pm 25.4 20.9 2.2 22 11.4 E 15 19 8 10 1009.8 1007.3 0.0
14/10:30pm 26.1 21.5 1.4 20 12.0 ENE 15 19 8 10 1010.0 1007.5 0.0
14/10:00pm 26.8 21.8 1.3 19 12.4 ENE 17 20 9 11 1010.1 1007.6 0.0
14/09:30pm 27.4 22.3 1.0 18 12.8 E 17 24 9 13 1010.1 1007.6 0.0
14/09:00pm 27.6 22.4 0.4 17 13.1 E 17 20 9 11 1009.9 1007.4 0.0
14/08:30pm 28.1 23.0 0.8 17 13.3 E 17 20 9 11 1009.6 1007.2 0.0
14/08:00pm 28.6 23.8 0.3 16 13.7 E 15 19 8 10 1009.5 1007.1 0.0
14/07:30pm 29.3 24.1 0.0 15 14.2 E 17 20 9 11 1009.3 1006.9 0.0
14/07:00pm 30.1 24.5 -0.3 14 14.7 E 19 26 10 14 1009.2 1006.8 0.0
14/06:30pm 31.2 25.9 -0.5 13 15.4 E 17 20 9 11 1009.1 1006.7 0.0

Other Formats:

Comma delimited format used in spreadsheet applications
http://www.bom.gov.au/fwo/IDW60801/IDW60801.94450.axf

JavaScript Object Notation format (JSON) in row-major order
http://www.bom.gov.au/fwo/IDW60801/IDW60801.94450.json